createdAt,value
2018-09-11T00:00:13.086Z,69.94
2018-09-11T00:02:41.642Z,70.05
2018-09-11T00:05:10.173Z,69.69
2018-09-11T00:07:45.029Z,69.94
2018-09-11T00:10:13.597Z,69.39
2018-09-11T00:12:42.173Z,70.43
2018-09-11T00:15:10.630Z,69.60
2018-09-11T00:17:39.197Z,70.24
2018-09-11T00:20:07.717Z,69.43
2018-09-11T00:22:36.273Z,70.15
2018-09-11T00:25:04.891Z,70.56
2018-09-11T00:27:33.527Z,69.82
2018-09-11T00:30:02.868Z,70.57
2018-09-11T00:32:32.224Z,69.90
2018-09-11T00:35:00.874Z,70.39
2018-09-11T00:37:29.450Z,69.78
2018-09-11T00:39:58.689Z,70.67
2018-09-11T00:42:27.543Z,70.59
2018-09-11T00:44:56.070Z,70.97
2018-09-11T00:47:24.653Z,70.22
2018-09-11T00:49:53.359Z,70.24
2018-09-11T00:52:22.045Z,70.43
2018-09-11T00:54:50.631Z,70.97
2018-09-11T00:57:19.197Z,70.74
2018-09-11T00:59:47.869Z,70.90
2018-09-11T01:02:16.327Z,71.20
2018-09-11T01:04:44.750Z,71.44
2018-09-11T01:07:13.325Z,71.21
2018-09-11T01:09:42.717Z,70.99
2018-09-11T01:12:11.300Z,71.52
2018-09-11T01:14:39.864Z,71.13
2018-09-11T01:17:08.761Z,71.71
2018-09-11T01:19:37.429Z,71.80
2018-09-11T01:22:05.900Z,71.60
2018-09-11T01:24:34.373Z,71.68
2018-09-11T01:27:02.863Z,71.86
2018-09-11T01:29:32.478Z,71.22
2018-09-11T01:32:01.560Z,72.28
2018-09-11T01:34:30.472Z,71.35
2018-09-11T01:36:59.183Z,71.78
2018-09-11T01:39:27.660Z,71.93
2018-09-11T01:41:56.175Z,71.39
2018-09-11T01:44:24.697Z,71.91
2018-09-11T01:46:53.450Z,72.25
2018-09-11T01:49:21.929Z,72.65
2018-09-11T01:51:51.181Z,72.49
2018-09-11T01:54:19.660Z,72.18
2018-09-11T01:56:48.808Z,72.48
2018-09-11T01:59:17.258Z,72.58
2018-09-11T02:01:45.817Z,72.52
2018-09-11T02:04:15.320Z,72.37
2018-09-11T02:06:43.854Z,72.92
2018-09-11T02:09:13.544Z,72.76
2018-09-11T02:11:45.142Z,72.99
2018-09-11T02:14:13.652Z,72.43
2018-09-11T02:16:42.074Z,73.11
2018-09-11T02:19:10.766Z,72.74
2018-09-11T02:21:39.188Z,72.86
2018-09-11T02:24:07.850Z,73.29
2018-09-11T02:26:36.354Z,72.44
2018-09-11T02:29:05.823Z,73.13
2018-09-11T02:31:34.240Z,73.21
2018-09-11T02:34:02.655Z,73.28
2018-09-11T02:36:31.107Z,73.45
2018-09-11T02:38:59.562Z,73.68
2018-09-11T02:41:28.066Z,73.50
2018-09-11T02:43:56.716Z,73.87
2018-09-11T02:46:25.208Z,73.36
2018-09-11T02:48:53.630Z,73.51
2018-09-11T02:51:22.799Z,73.84
2018-09-11T02:53:51.337Z,72.96
2018-09-11T02:56:20.419Z,73.52
2018-09-11T02:58:48.983Z,73.18
2018-09-11T03:01:17.604Z,73.02
2018-09-11T03:03:46.044Z,72.96
2018-09-11T03:06:14.676Z,73.16
2018-09-11T03:08:43.083Z,73.35
2018-09-11T03:11:11.748Z,73.16
2018-09-11T03:13:40.194Z,73.31
2018-09-11T03:16:09.047Z,73.58
2018-09-11T03:18:37.487Z,73.19
2018-09-11T03:21:06.932Z,73.20
2018-09-11T03:23:35.654Z,73.47
2018-09-11T03:26:04.099Z,73.33
2018-09-11T03:28:32.676Z,73.19
2018-09-11T03:31:01.138Z,72.81
2018-09-11T03:33:29.550Z,73.28
2018-09-11T03:35:58.316Z,72.86
2018-09-11T03:38:26.734Z,73.35
2018-09-11T03:40:55.573Z,73.19
2018-09-11T03:43:24.240Z,72.90
2018-09-11T03:45:53.361Z,73.77
2018-09-11T03:48:22.371Z,73.83
2018-09-11T03:50:51.936Z,73.30
2018-09-11T03:53:21.431Z,73.29
2018-09-11T03:55:50.506Z,73.43
2018-09-11T03:58:19.242Z,73.30
2018-09-11T04:00:47.733Z,73.07
2018-09-11T04:03:16.368Z,73.20
2018-09-11T04:05:45.426Z,73.07
2018-09-11T04:08:13.980Z,72.63
2018-09-11T04:10:42.437Z,72.94
2018-09-11T04:13:11.507Z,73.35
2018-09-11T04:15:40.014Z,72.80
2018-09-11T04:18:08.504Z,73.16
2018-09-11T04:20:37.606Z,73.00
2018-09-11T04:23:06.804Z,72.42
2018-09-11T04:25:35.666Z,72.97
2018-09-11T04:28:04.164Z,72.80
2018-09-11T04:30:32.626Z,72.47
2018-09-11T04:33:01.304Z,73.30
2018-09-11T04:35:30.013Z,72.91
2018-09-11T04:37:58.441Z,72.41
2018-09-11T04:40:27.098Z,72.86
2018-09-11T04:42:55.777Z,72.90
2018-09-11T04:45:24.338Z,72.93
2018-09-11T04:47:53.357Z,72.54
2018-09-11T04:50:21.797Z,72.55
2018-09-11T04:52:51.022Z,72.85
2018-09-11T04:55:19.935Z,72.29
2018-09-11T04:57:48.515Z,73.43
2018-09-11T05:00:17.285Z,72.66
2018-09-11T05:02:45.863Z,73.28
2018-09-11T05:05:14.371Z,73.21
2018-09-11T05:07:43.010Z,72.90
2018-09-11T05:10:12.228Z,73.37
2018-09-11T05:12:40.657Z,74.22
2018-09-11T05:15:09.141Z,73.58
2018-09-11T05:17:37.673Z,73.55
2018-09-11T05:22:48.810Z,73.76
2018-09-11T05:25:18.096Z,73.96
2018-09-11T05:27:46.661Z,74.53
2018-09-11T05:30:15.118Z,74.19
2018-09-11T05:32:43.728Z,74.44
2018-09-11T05:35:12.256Z,74.47
2018-09-11T05:37:40.898Z,74.62
2018-09-11T05:40:09.378Z,74.99
2018-09-11T05:42:37.976Z,74.73
2018-09-11T05:45:07.177Z,74.77
2018-09-11T05:47:36.347Z,75.24
2018-09-11T05:50:05.956Z,74.83
2018-09-11T05:52:34.409Z,75.50
2018-09-11T05:55:03.900Z,75.31
2018-09-11T05:57:32.632Z,75.02
2018-09-11T06:00:01.259Z,74.90
2018-09-11T06:02:30.743Z,75.46
2018-09-11T06:04:59.434Z,75.55
2018-09-11T06:07:27.908Z,75.18
2018-09-11T06:09:56.508Z,75.09
2018-09-11T06:12:25.883Z,75.75
2018-09-11T06:14:54.373Z,75.86
2018-09-11T06:17:29.184Z,75.13
2018-09-11T06:19:58.572Z,75.65
2018-09-11T06:22:27.177Z,75.60
2018-09-11T06:24:55.769Z,75.88
2018-09-11T06:27:25.325Z,75.40
2018-09-11T06:29:53.975Z,75.46
2018-09-11T06:32:22.383Z,75.55
2018-09-11T06:34:51.080Z,74.75
2018-09-11T06:37:19.553Z,74.83
2018-09-11T06:39:48.065Z,75.14
2018-09-11T06:42:17.759Z,75.34
2018-09-11T06:44:46.985Z,75.26
2018-09-11T06:47:16.001Z,75.26
2018-09-11T06:49:44.612Z,74.81
2018-09-11T06:52:13.061Z,74.81
2018-09-11T06:54:41.955Z,75.26
2018-09-11T06:57:14.384Z,74.71
2018-09-11T06:59:43.541Z,75.12
2018-09-11T07:02:12.143Z,74.58
2018-09-11T07:04:40.783Z,74.39
2018-09-11T07:07:09.445Z,74.82
2018-09-11T07:09:39.080Z,75.16
2018-09-11T07:12:07.883Z,74.74
2018-09-11T07:14:36.668Z,74.94
2018-09-11T07:17:05.344Z,74.62
2018-09-11T07:19:33.821Z,75.02
2018-09-11T07:22:02.625Z,74.33
2018-09-11T07:24:31.122Z,73.95
2018-09-11T07:27:00.028Z,74.77
2018-09-11T07:29:28.684Z,74.65
2018-09-11T07:31:57.118Z,74.06
2018-09-11T07:34:26.288Z,74.38
2018-09-11T07:36:54.847Z,74.02
2018-09-11T07:39:23.418Z,73.51
2018-09-11T07:41:51.981Z,73.58
2018-09-11T07:44:20.469Z,73.87
2018-09-11T07:46:49.217Z,74.02
2018-09-11T07:49:17.710Z,73.69
2018-09-11T07:51:46.203Z,72.80
2018-09-11T07:54:14.849Z,73.11
2018-09-11T07:56:43.367Z,73.06
2018-09-11T07:59:12.128Z,72.30
2018-09-11T08:01:40.628Z,72.61
2018-09-11T08:04:09.110Z,72.83
2018-09-11T08:06:37.617Z,71.98
2018-09-11T08:09:10.561Z,71.85
2018-09-11T08:11:39.053Z,72.39
2018-09-11T08:14:07.705Z,72.37
2018-09-11T08:16:36.375Z,71.63
2018-09-11T08:19:05.022Z,71.47
2018-09-11T08:21:34.268Z,71.91
2018-09-11T08:24:02.822Z,71.18
2018-09-11T08:26:31.407Z,71.52
2018-09-11T08:29:00.158Z,70.78
2018-09-11T08:31:28.817Z,70.26
2018-09-11T08:33:57.445Z,70.28
2018-09-11T08:36:26.303Z,70.15
2018-09-11T08:38:54.912Z,69.94
2018-09-11T08:41:23.458Z,70.23
2018-09-11T08:43:52.063Z,69.62
2018-09-11T08:46:20.870Z,69.54
2018-09-11T08:48:49.600Z,69.53
2018-09-11T08:51:18.819Z,69.09
2018-09-11T08:53:47.271Z,69.70
2018-09-11T08:56:15.808Z,69.51
2018-09-11T08:58:44.537Z,68.59
2018-09-11T09:01:13.508Z,68.12
2018-09-11T09:03:42.131Z,69.07
2018-09-11T09:06:10.705Z,68.58
2018-09-11T09:08:39.244Z,68.13
2018-09-11T09:11:07.834Z,68.08
2018-09-11T09:13:36.491Z,67.73
2018-09-11T09:16:05.075Z,67.52
2018-09-11T09:18:33.589Z,66.08
2018-09-11T09:21:02.140Z,65.23
2018-09-11T09:23:30.617Z,65.94
2018-09-11T09:25:59.222Z,65.47
2018-09-11T09:28:27.819Z,65.89
2018-09-11T09:30:56.444Z,65.00
2018-09-11T09:33:25.028Z,65.54
2018-09-11T09:35:53.729Z,65.04
2018-09-11T09:38:22.289Z,64.60
2018-09-11T09:40:50.780Z,65.07
2018-09-11T09:43:19.445Z,64.87
2018-09-11T09:45:47.904Z,64.65
2018-09-11T09:48:16.832Z,63.35
2018-09-11T09:50:45.526Z,63.69
2018-09-11T09:53:14.540Z,64.30
2018-09-11T09:55:43.232Z,63.41
2018-09-11T09:58:12.338Z,62.50
2018-09-11T10:03:13.678Z,61.53
2018-09-11T10:05:42.285Z,61.78
2018-09-11T10:08:10.800Z,61.19
2018-09-11T10:10:39.424Z,61.04
2018-09-11T10:13:07.921Z,60.25
2018-09-11T10:15:36.676Z,60.25
2018-09-11T10:18:05.164Z,59.73
2018-09-11T10:20:33.712Z,59.63
2018-09-11T10:23:02.268Z,58.78
2018-09-11T10:25:30.817Z,59.10
2018-09-11T10:27:59.500Z,59.65
2018-09-11T10:30:28.025Z,59.10
2018-09-11T10:32:56.668Z,58.23
2018-09-11T10:35:25.197Z,58.17
2018-09-11T10:37:53.648Z,58.62
2018-09-11T10:40:22.355Z,57.53
2018-09-11T10:42:50.831Z,55.92
2018-09-11T10:45:20.446Z,55.60
2018-09-11T10:47:49.150Z,55.67
2018-09-11T10:50:17.922Z,56.50
2018-09-11T10:52:46.339Z,55.96
2018-09-11T10:55:14.825Z,56.58
2018-09-11T10:57:43.381Z,55.58
2018-09-11T11:00:11.966Z,55.04
2018-09-11T11:02:40.497Z,54.94
2018-09-11T11:05:09.717Z,53.39
2018-09-11T11:07:38.833Z,53.23
2018-09-11T11:10:07.941Z,53.61
2018-09-11T11:12:36.546Z,54.26
2018-09-11T11:15:05.209Z,53.40
2018-09-11T11:17:33.793Z,53.74
2018-09-11T11:20:02.380Z,52.40
2018-09-11T11:22:30.993Z,52.53
2018-09-11T11:24:59.509Z,52.68
2018-09-11T11:27:28.293Z,51.44
2018-09-11T11:29:56.770Z,51.08
2018-09-11T11:32:25.410Z,50.78
2018-09-11T11:34:54.063Z,49.86
2018-09-11T11:37:23.046Z,50.74
2018-09-11T11:39:51.431Z,50.99
2018-09-11T11:42:20.497Z,49.80
2018-09-11T11:44:48.912Z,50.36
2018-09-11T11:47:19.972Z,50.01
2018-09-11T11:49:49.977Z,49.36
2018-09-11T11:52:19.102Z,48.15
2018-09-11T11:54:47.897Z,47.50
2018-09-11T11:57:16.319Z,47.80
2018-09-11T11:59:45.230Z,48.77
2018-09-11T12:02:13.916Z,48.60
2018-09-11T12:04:42.714Z,47.94
2018-09-11T12:07:11.428Z,48.04
2018-09-11T12:09:40.532Z,46.10
2018-09-11T12:12:09.282Z,45.71
2018-09-11T12:14:37.771Z,43.88
2018-09-11T12:17:06.824Z,45.16
2018-09-11T12:19:35.260Z,44.93
2018-09-11T12:22:03.814Z,44.95
2018-09-11T12:24:32.393Z,43.89
2018-09-11T12:27:01.139Z,43.96
2018-09-11T12:29:29.617Z,43.16
2018-09-11T12:31:58.185Z,43.65
2018-09-11T12:34:26.858Z,43.12
2018-09-11T12:36:55.888Z,43.18
2018-09-11T12:39:24.451Z,43.84
2018-09-11T12:41:53.081Z,42.54
2018-09-11T12:44:21.588Z,41.69
2018-09-11T12:46:50.827Z,41.43
2018-09-11T12:49:20.141Z,42.70
2018-09-11T12:51:49.585Z,42.81
2018-09-11T12:54:18.828Z,42.00
2018-09-11T12:56:47.648Z,41.07
2018-09-11T12:59:16.385Z,41.12
2018-09-11T13:01:45.588Z,41.99
2018-09-11T13:04:14.335Z,40.16
2018-09-11T13:06:43.024Z,39.27
2018-09-11T13:09:11.650Z,40.07
2018-09-11T13:11:40.164Z,39.24
2018-09-11T13:14:08.805Z,39.57
2018-09-11T13:16:37.331Z,39.11
2018-09-11T13:19:05.780Z,38.75
2018-09-11T13:21:34.308Z,39.09
2018-09-11T13:24:02.941Z,37.13
2018-09-11T13:26:31.677Z,36.76
2018-09-11T13:29:00.220Z,36.31
2018-09-11T13:31:28.747Z,35.04
2018-09-11T13:33:57.239Z,34.16
2018-09-11T13:36:28.819Z,33.30
2018-09-11T13:38:57.297Z,31.73
2018-09-11T13:41:26.068Z,31.97
2018-09-11T13:43:54.493Z,30.18
2018-09-11T13:46:23.055Z,29.79
2018-09-11T13:48:51.578Z,28.63
2018-09-11T13:51:20.216Z,29.96
2018-09-11T13:53:48.669Z,28.58
2018-09-11T13:56:17.420Z,28.57
2018-09-11T13:58:45.878Z,27.58
2018-09-11T14:01:14.467Z,27.68
2018-09-11T14:03:43.612Z,27.08
2018-09-11T14:06:12.604Z,27.08
2018-09-11T14:08:41.227Z,26.36
2018-09-11T14:11:09.747Z,26.03
2018-09-11T14:13:38.561Z,25.31
2018-09-11T14:16:07.453Z,25.57
2018-09-11T14:18:36.432Z,26.06
2018-09-11T14:21:05.628Z,25.62
2018-09-11T14:23:35.180Z,25.41
2018-09-11T14:26:03.882Z,25.75
2018-09-11T14:28:32.616Z,24.87
2018-09-11T14:31:01.936Z,24.47
2018-09-11T14:33:30.680Z,24.63
2018-09-11T14:35:59.422Z,23.04
2018-09-11T14:38:28.174Z,23.47
2018-09-11T14:40:56.667Z,23.41
2018-09-11T14:43:25.161Z,23.48
2018-09-11T14:45:53.788Z,24.03
2018-09-11T14:48:22.332Z,23.76
2018-09-11T14:50:50.799Z,23.89
2018-09-11T14:53:19.451Z,23.75
2018-09-11T14:55:48.127Z,23.87
2018-09-11T14:58:17.658Z,23.42
2018-09-11T15:00:46.960Z,22.61
2018-09-11T15:03:15.423Z,22.50
2018-09-11T15:05:44.010Z,22.38
2018-09-11T15:08:12.497Z,22.03
2018-09-11T15:10:41.012Z,22.49
2018-09-11T15:13:09.513Z,22.49
2018-09-11T15:15:38.556Z,22.31
2018-09-11T15:18:07.119Z,22.39
2018-09-11T15:20:35.610Z,23.45
2018-09-11T15:23:05.121Z,25.37
2018-09-11T15:25:34.728Z,26.22
2018-09-11T15:28:03.937Z,26.47
2018-09-11T15:30:32.813Z,26.80
2018-09-11T15:33:01.367Z,28.59
2018-09-11T15:35:30.690Z,28.34
2018-09-11T15:37:59.317Z,30.07
2018-09-11T15:40:28.073Z,29.48
2018-09-11T15:42:56.665Z,29.60
2018-09-11T15:45:25.535Z,31.20
2018-09-11T15:47:54.040Z,30.82
2018-09-11T15:50:29.345Z,30.62
2018-09-11T15:52:58.002Z,31.09
2018-09-11T15:55:26.716Z,31.02
2018-09-11T15:57:55.463Z,33.07
2018-09-11T16:00:24.551Z,33.14
2018-09-11T16:02:53.251Z,32.96
2018-09-11T16:05:28.233Z,34.09
2018-09-11T16:07:56.780Z,32.95
2018-09-11T16:10:25.294Z,33.58
2018-09-11T16:12:54.421Z,34.43
2018-09-11T16:15:23.011Z,33.97
2018-09-11T16:17:51.476Z,34.84
2018-09-11T16:20:20.014Z,35.33
2018-09-11T16:22:48.606Z,34.24
2018-09-11T16:25:17.255Z,35.19
2018-09-11T16:27:45.813Z,35.90
2018-09-11T16:30:14.474Z,36.43
2018-09-11T16:32:42.840Z,36.35
2018-09-11T16:35:11.313Z,35.58
2018-09-11T16:37:40.059Z,35.92
2018-09-11T16:40:08.718Z,35.51
2018-09-11T16:42:38.066Z,36.79
2018-09-11T16:45:07.200Z,36.13
2018-09-11T16:47:35.833Z,37.19
2018-09-11T16:50:04.563Z,36.66
2018-09-11T16:52:33.305Z,37.71
2018-09-11T16:55:01.897Z,37.26
2018-09-11T16:57:30.513Z,36.85
2018-09-11T16:59:59.233Z,37.11
2018-09-11T17:02:27.883Z,36.69
2018-09-11T17:04:57.411Z,37.79
2018-09-11T17:07:25.925Z,37.58
2018-09-11T17:09:55.031Z,38.80
2018-09-11T17:12:26.828Z,38.42
2018-09-11T17:14:55.895Z,37.99
2018-09-11T17:17:24.812Z,37.87
2018-09-11T17:19:53.448Z,39.11
2018-09-11T17:22:43.454Z,39.29
2018-09-11T17:25:13.086Z,38.62
2018-09-11T17:27:56.553Z,39.49
2018-09-11T17:30:38.100Z,38.90
2018-09-11T17:33:08.694Z,39.33
2018-09-11T17:35:37.823Z,39.04
2018-09-11T17:38:11.573Z,40.06
2018-09-11T17:40:40.826Z,40.06
2018-09-11T17:43:20.339Z,39.78
2018-09-11T17:45:50.030Z,40.02
2018-09-11T17:48:19.402Z,40.92
2018-09-11T17:56:45.368Z,41.40
2018-09-11T17:59:14.310Z,40.88
2018-09-11T18:01:43.026Z,42.32
2018-09-11T18:04:14.351Z,42.20
2018-09-11T18:06:43.158Z,42.34
2018-09-11T18:09:12.695Z,41.97
2018-09-11T18:11:41.611Z,43.51
2018-09-11T18:14:10.658Z,43.20
2018-09-11T18:16:41.814Z,42.64
2018-09-11T18:19:16.579Z,43.06
2018-09-11T18:21:45.486Z,43.54
2018-09-11T18:24:14.735Z,44.64
2018-09-11T18:26:43.934Z,43.57
2018-09-11T18:29:13.429Z,44.59
2018-09-11T18:31:42.300Z,43.98
2018-09-11T18:34:10.975Z,45.25
2018-09-11T18:36:39.809Z,44.84
2018-09-11T18:39:10.285Z,45.05
2018-09-11T18:41:38.828Z,45.95
2018-09-11T18:44:07.432Z,45.20
2018-09-11T18:46:36.459Z,46.51
2018-09-11T18:49:05.280Z,46.72
2018-09-11T18:51:33.978Z,46.56
2018-09-11T18:54:02.498Z,46.44
2018-09-11T18:56:31.417Z,47.15
2018-09-11T18:59:03.097Z,47.17
2018-09-11T19:01:32.553Z,46.95
2018-09-11T19:04:01.345Z,48.32
2018-09-11T19:06:30.496Z,48.02
2018-09-11T19:09:00.909Z,47.33
2018-09-11T19:11:30.664Z,47.90
2018-09-11T19:14:00.918Z,48.10
2018-09-11T19:16:29.576Z,47.52
2018-09-11T19:18:58.244Z,48.01
2018-09-11T19:21:29.781Z,48.45
2018-09-11T19:23:58.950Z,48.20
2018-09-11T19:26:27.581Z,47.96
2018-09-11T19:28:56.229Z,48.46
2018-09-11T19:31:25.533Z,48.47
2018-09-11T19:33:58.499Z,49.17
2018-09-11T19:36:27.951Z,48.87
2018-09-11T19:38:57.220Z,49.61
2018-09-11T19:41:26.568Z,49.80
2018-09-11T19:43:55.679Z,49.82
2018-09-11T19:46:24.916Z,50.22
2018-09-11T19:48:55.027Z,50.03
2018-09-11T19:51:25.002Z,50.19
2018-09-11T19:53:53.671Z,50.35
2018-09-11T19:56:22.649Z,50.16
2018-09-11T19:58:51.931Z,50.69
2018-09-11T20:01:20.847Z,50.45
2018-09-11T20:03:49.844Z,50.23
2018-09-11T20:06:18.615Z,50.46
2018-09-11T20:08:47.296Z,50.35
2018-09-11T20:11:16.032Z,50.55
2018-09-11T20:13:45.199Z,51.97
2018-09-11T20:16:13.753Z,51.72
2018-09-11T20:18:42.720Z,51.03
2018-09-11T20:21:12.204Z,52.15
2018-09-11T20:23:41.078Z,51.88
2018-09-11T20:26:11.803Z,51.46
2018-09-11T20:28:47.125Z,52.30
2018-09-11T20:31:15.975Z,52.17
2018-09-11T20:33:45.667Z,52.52
2018-09-11T20:36:15.144Z,52.51
2018-09-11T20:38:44.036Z,52.62
2018-09-11T20:41:13.196Z,52.03
2018-09-11T20:43:48.154Z,52.61
2018-09-11T20:46:16.807Z,53.08
2018-09-11T20:48:45.641Z,53.46
2018-09-11T20:51:17.650Z,52.94
2018-09-11T20:53:46.751Z,53.36
2018-09-11T20:56:15.616Z,53.91
2018-09-11T20:58:44.272Z,54.13
2018-09-11T21:01:12.897Z,53.48
2018-09-11T21:03:41.749Z,53.66
2018-09-11T21:06:15.729Z,53.76
2018-09-11T21:08:44.417Z,54.39
2018-09-11T21:11:13.396Z,53.55
2018-09-11T21:13:42.110Z,54.49
2018-09-11T21:16:10.877Z,54.38
2018-09-11T21:18:39.760Z,54.74
2018-09-11T21:21:08.957Z,54.35
2018-09-11T21:23:37.757Z,55.13
2018-09-11T21:28:59.932Z,54.84
2018-09-11T21:31:28.775Z,54.66
2018-09-11T21:33:58.395Z,54.86
2018-09-11T21:36:26.892Z,55.35
2018-09-11T21:38:55.321Z,55.08
2018-09-11T21:41:24.030Z,55.51
2018-09-11T21:43:53.134Z,55.02
2018-09-11T21:46:21.626Z,55.89
2018-09-11T21:48:50.181Z,55.59
2018-09-11T21:51:18.702Z,55.72
2018-09-11T21:53:47.269Z,55.88
2018-09-11T21:56:15.801Z,55.98
2018-09-11T21:58:45.123Z,56.31
2018-09-11T22:01:19.241Z,56.53
2018-09-11T22:03:48.075Z,56.57
2018-09-11T22:08:44.413Z,56.27
2018-09-11T22:11:13.133Z,56.88
2018-09-11T22:13:42.160Z,57.23
2018-09-11T22:16:10.621Z,56.69
2018-09-11T22:18:39.239Z,57.35
2018-09-11T22:21:07.756Z,57.31
2018-09-11T22:23:36.411Z,57.81
2018-09-11T22:26:04.962Z,57.08
2018-09-11T22:28:33.499Z,57.55
2018-09-11T22:31:01.979Z,57.42
2018-09-11T22:33:30.781Z,57.71
2018-09-11T22:35:59.473Z,58.09
2018-09-11T22:38:28.160Z,57.64
2018-09-11T22:40:56.921Z,57.82
2018-09-11T22:43:25.773Z,57.90
2018-09-11T22:45:54.544Z,57.87
2018-09-11T22:48:22.994Z,58.28
2018-09-11T22:50:51.606Z,58.81
2018-09-11T22:53:20.352Z,58.10
2018-09-11T22:55:49.073Z,59.11
2018-09-11T22:58:17.633Z,58.37
2018-09-11T23:00:46.069Z,59.05
2018-09-11T23:03:14.591Z,59.10
2018-09-11T23:05:43.165Z,58.89
2018-09-11T23:08:11.722Z,59.29
2018-09-11T23:10:40.882Z,58.73
2018-09-11T23:13:09.816Z,58.66
2018-09-11T23:15:38.326Z,58.63
2018-09-11T23:18:06.834Z,58.51
2018-09-11T23:20:35.536Z,59.48
2018-09-11T23:23:04.133Z,59.25
2018-09-11T23:25:32.674Z,59.39
2018-09-11T23:28:01.180Z,59.42
2018-09-11T23:30:29.767Z,59.25
2018-09-11T23:32:58.356Z,58.59
2018-09-11T23:35:27.462Z,58.60
2018-09-11T23:37:56.070Z,59.27
2018-09-11T23:40:24.753Z,59.25
2018-09-11T23:42:53.443Z,58.75
2018-09-11T23:45:22.135Z,58.70
2018-09-11T23:47:50.976Z,58.91
2018-09-11T23:50:19.424Z,59.34
2018-09-11T23:52:47.869Z,59.73
2018-09-11T23:55:17.084Z,60.02
2018-09-11T23:57:45.853Z,59.70
